sensor_id;sensor_type;location;lat;lon;timestamp;P1;durP1;ratioP1;P2;durP2;ratioP2
12437;SDS011;6283;51.330;12.374;2022-08-18T00:01:19;5.93;;;4.82;;
12437;SDS011;6283;51.330;12.374;2022-08-18T00:03:47;5.10;;;4.60;;
12437;SDS011;6283;51.330;12.374;2022-08-18T00:06:13;4.80;;;4.30;;
12437;SDS011;6283;51.330;12.374;2022-08-18T00:08:39;6.68;;;4.70;;
12437;SDS011;6283;51.330;12.374;2022-08-18T00:11:05;4.97;;;4.57;;
12437;SDS011;6283;51.330;12.374;2022-08-18T00:13:31;5.10;;;4.50;;
12437;SDS011;6283;51.330;12.374;2022-08-18T00:15:57;5.95;;;4.78;;
12437;SDS011;6283;51.330;12.374;2022-08-18T00:18:23;5.15;;;4.53;;
12437;SDS011;6283;51.330;12.374;2022-08-18T00:20:49;5.40;;;4.45;;
12437;SDS011;6283;51.330;12.374;2022-08-18T00:23:14;5.00;;;4.47;;
12437;SDS011;6283;51.330;12.374;2022-08-18T00:25:40;6.38;;;4.47;;
12437;SDS011;6283;51.330;12.374;2022-08-18T00:28:06;6.63;;;4.72;;
12437;SDS011;6283;51.330;12.374;2022-08-18T00:30:32;8.05;;;4.80;;
12437;SDS011;6283;51.330;12.374;2022-08-18T00:32:58;4.15;;;3.75;;
12437;SDS011;6283;51.330;12.374;2022-08-18T00:35:29;4.47;;;4.07;;
12437;SDS011;6283;51.330;12.374;2022-08-18T00:38:01;4.95;;;4.63;;
12437;SDS011;6283;51.330;12.374;2022-08-18T00:40:31;5.00;;;4.60;;
12437;SDS011;6283;51.330;12.374;2022-08-18T00:43:11;7.80;;;4.82;;
12437;SDS011;6283;51.330;12.374;2022-08-18T00:45:41;8.00;;;5.10;;
12437;SDS011;6283;51.330;12.374;2022-08-18T00:48:08;9.10;;;4.88;;
12437;SDS011;6283;51.330;12.374;2022-08-18T00:50:47;5.60;;;5.10;;
12437;SDS011;6283;51.330;12.374;2022-08-18T00:53:27;5.38;;;4.65;;
12437;SDS011;6283;51.330;12.374;2022-08-18T00:55:59;4.95;;;4.50;;
12437;SDS011;6283;51.330;12.374;2022-08-18T00:58:32;8.20;;;4.63;;
12437;SDS011;6283;51.330;12.374;2022-08-18T01:01:02;5.20;;;4.70;;
12437;SDS011;6283;51.330;12.374;2022-08-18T01:03:30;5.72;;;4.72;;
12437;SDS011;6283;51.330;12.374;2022-08-18T01:06:02;5.10;;;4.40;;
12437;SDS011;6283;51.330;12.374;2022-08-18T01:08:49;5.40;;;4.63;;
12437;SDS011;6283;51.330;12.374;2022-08-18T01:11:14;5.55;;;5.05;;
12437;SDS011;6283;51.330;12.374;2022-08-18T01:13:40;5.80;;;3.90;;
12437;SDS011;6283;51.330;12.374;2022-08-18T01:16:07;5.60;;;5.10;;
12437;SDS011;6283;51.330;12.374;2022-08-18T01:18:52;11.77;;;5.57;;
12437;SDS011;6283;51.330;12.374;2022-08-18T01:21:38;8.75;;;5.15;;
12437;SDS011;6283;51.330;12.374;2022-08-18T01:24:22;9.75;;;5.00;;
12437;SDS011;6283;51.330;12.374;2022-08-18T01:27:11;6.20;;;4.50;;
12437;SDS011;6283;51.330;12.374;2022-08-18T01:29:42;5.05;;;4.65;;
12437;SDS011;6283;51.330;12.374;2022-08-18T01:32:13;5.88;;;4.20;;
12437;SDS011;6283;51.330;12.374;2022-08-18T01:34:43;5.35;;;4.72;;
12437;SDS011;6283;51.330;12.374;2022-08-18T01:37:12;5.05;;;4.65;;
12437;SDS011;6283;51.330;12.374;2022-08-18T01:39:42;5.07;;;4.60;;
12437;SDS011;6283;51.330;12.374;2022-08-18T01:42:09;5.45;;;4.97;;
12437;SDS011;6283;51.330;12.374;2022-08-18T01:44:36;5.63;;;5.13;;
12437;SDS011;6283;51.330;12.374;2022-08-18T01:47:05;6.53;;;5.28;;
12437;SDS011;6283;51.330;12.374;2022-08-18T01:49:33;6.00;;;5.13;;
12437;SDS011;6283;51.330;12.374;2022-08-18T01:51:58;7.72;;;5.18;;
12437;SDS011;6283;51.330;12.374;2022-08-18T01:54:24;5.63;;;5.10;;
12437;SDS011;6283;51.330;12.374;2022-08-18T01:56:54;7.13;;;5.45;;
12437;SDS011;6283;51.330;12.374;2022-08-18T01:59:20;5.93;;;5.32;;
12437;SDS011;6283;51.330;12.374;2022-08-18T02:01:46;5.78;;;4.70;;
12437;SDS011;6283;51.330;12.374;2022-08-18T02:04:12;5.25;;;4.82;;
12437;SDS011;6283;51.330;12.374;2022-08-18T02:06:40;5.88;;;4.97;;
12437;SDS011;6283;51.330;12.374;2022-08-18T02:09:05;6.07;;;4.70;;
12437;SDS011;6283;51.330;12.374;2022-08-18T02:11:31;5.25;;;4.75;;
12437;SDS011;6283;51.330;12.374;2022-08-18T02:13:57;5.65;;;5.15;;
12437;SDS011;6283;51.330;12.374;2022-08-18T02:16:23;5.18;;;4.55;;
12437;SDS011;6283;51.330;12.374;2022-08-18T02:18:48;4.80;;;4.47;;
12437;SDS011;6283;51.330;12.374;2022-08-18T02:21:15;7.05;;;5.15;;
12437;SDS011;6283;51.330;12.374;2022-08-18T02:23:42;5.05;;;4.60;;
12437;SDS011;6283;51.330;12.374;2022-08-18T02:26:10;4.85;;;4.45;;
12437;SDS011;6283;51.330;12.374;2022-08-18T02:28:38;5.30;;;4.90;;
12437;SDS011;6283;51.330;12.374;2022-08-18T02:31:05;7.28;;;5.68;;
12437;SDS011;6283;51.330;12.374;2022-08-18T02:33:35;7.22;;;5.47;;
12437;SDS011;6283;51.330;12.374;2022-08-18T02:36:02;6.47;;;5.38;;
12437;SDS011;6283;51.330;12.374;2022-08-18T02:38:28;6.93;;;5.82;;
12437;SDS011;6283;51.330;12.374;2022-08-18T02:40:58;6.63;;;5.70;;
12437;SDS011;6283;51.330;12.374;2022-08-18T02:43:26;5.78;;;5.28;;
12437;SDS011;6283;51.330;12.374;2022-08-18T02:45:52;9.68;;;6.10;;
12437;SDS011;6283;51.330;12.374;2022-08-18T02:48:18;38.97;;;9.32;;
12437;SDS011;6283;51.330;12.374;2022-08-18T02:51:04;16.10;;;6.57;;
12437;SDS011;6283;51.330;12.374;2022-08-18T02:53:35;8.05;;;5.47;;
12437;SDS011;6283;51.330;12.374;2022-08-18T02:56:03;6.07;;;5.47;;
12437;SDS011;6283;51.330;12.374;2022-08-18T02:58:45;5.78;;;5.28;;
12437;SDS011;6283;51.330;12.374;2022-08-18T03:01:11;5.93;;;5.30;;
12437;SDS011;6283;51.330;12.374;2022-08-18T03:03:37;7.07;;;5.32;;
12437;SDS011;6283;51.330;12.374;2022-08-18T03:06:03;5.95;;;4.90;;
12437;SDS011;6283;51.330;12.374;2022-08-18T03:08:29;6.40;;;5.13;;
12437;SDS011;6283;51.330;12.374;2022-08-18T03:10:56;6.35;;;5.10;;
12437;SDS011;6283;51.330;12.374;2022-08-18T03:13:22;5.80;;;5.30;;
12437;SDS011;6283;51.330;12.374;2022-08-18T03:15:47;5.00;;;4.53;;
12437;SDS011;6283;51.330;12.374;2022-08-18T03:18:13;8.45;;;5.90;;
12437;SDS011;6283;51.330;12.374;2022-08-18T03:20:38;5.13;;;4.70;;
12437;SDS011;6283;51.330;12.374;2022-08-18T03:23:08;5.63;;;4.97;;
12437;SDS011;6283;51.330;12.374;2022-08-18T03:25:33;5.80;;;5.35;;
12437;SDS011;6283;51.330;12.374;2022-08-18T03:28:00;6.90;;;5.85;;
12437;SDS011;6283;51.330;12.374;2022-08-18T03:30:27;5.85;;;5.35;;
12437;SDS011;6283;51.330;12.374;2022-08-18T03:32:53;6.72;;;5.50;;
12437;SDS011;6283;51.330;12.374;2022-08-18T03:35:18;5.25;;;4.72;;
12437;SDS011;6283;51.330;12.374;2022-08-18T03:37:44;7.18;;;5.20;;
12437;SDS011;6283;51.330;12.374;2022-08-18T03:40:10;6.55;;;5.50;;
12437;SDS011;6283;51.330;12.374;2022-08-18T03:42:36;6.40;;;5.10;;
12437;SDS011;6283;51.330;12.374;2022-08-18T03:45:03;6.13;;;5.55;;
12437;SDS011;6283;51.330;12.374;2022-08-18T03:47:30;6.40;;;5.50;;
12437;SDS011;6283;51.330;12.374;2022-08-18T03:49:56;6.80;;;5.78;;
12437;SDS011;6283;51.330;12.374;2022-08-18T03:52:23;7.50;;;5.53;;
12437;SDS011;6283;51.330;12.374;2022-08-18T03:54:48;6.78;;;5.15;;
12437;SDS011;6283;51.330;12.374;2022-08-18T03:57:14;5.70;;;5.20;;
12437;SDS011;6283;51.330;12.374;2022-08-18T03:59:40;7.82;;;5.07;;
12437;SDS011;6283;51.330;12.374;2022-08-18T04:02:07;5.70;;;5.07;;
12437;SDS011;6283;51.330;12.374;2022-08-18T04:04:34;6.10;;;5.32;;
12437;SDS011;6283;51.330;12.374;2022-08-18T04:07:02;7.63;;;5.22;;
12437;SDS011;6283;51.330;12.374;2022-08-18T04:09:32;5.53;;;4.85;;
12437;SDS011;6283;51.330;12.374;2022-08-18T04:12:02;5.45;;;4.95;;
12437;SDS011;6283;51.330;12.374;2022-08-18T04:14:34;7.38;;;5.47;;
12437;SDS011;6283;51.330;12.374;2022-08-18T04:17:01;6.00;;;4.55;;
12437;SDS011;6283;51.330;12.374;2022-08-18T04:19:27;6.55;;;4.47;;
12437;SDS011;6283;51.330;12.374;2022-08-18T04:21:53;5.38;;;4.32;;
12437;SDS011;6283;51.330;12.374;2022-08-18T04:24:21;5.97;;;4.82;;
12437;SDS011;6283;51.330;12.374;2022-08-18T04:26:46;7.47;;;5.07;;
12437;SDS011;6283;51.330;12.374;2022-08-18T04:29:14;5.60;;;4.53;;
12437;SDS011;6283;51.330;12.374;2022-08-18T04:31:42;5.07;;;4.63;;
12437;SDS011;6283;51.330;12.374;2022-08-18T04:34:08;8.05;;;4.95;;
12437;SDS011;6283;51.330;12.374;2022-08-18T04:36:34;6.00;;;5.38;;
12437;SDS011;6283;51.330;12.374;2022-08-18T04:39:02;5.40;;;4.50;;
12437;SDS011;6283;51.330;12.374;2022-08-18T04:41:30;5.38;;;4.88;;
12437;SDS011;6283;51.330;12.374;2022-08-18T04:43:56;5.80;;;5.25;;
12437;SDS011;6283;51.330;12.374;2022-08-18T04:46:23;6.10;;;4.68;;
12437;SDS011;6283;51.330;12.374;2022-08-18T04:48:49;6.45;;;5.35;;
12437;SDS011;6283;51.330;12.374;2022-08-18T04:51:16;6.53;;;4.88;;
12437;SDS011;6283;51.330;12.374;2022-08-18T04:53:44;6.88;;;4.72;;
12437;SDS011;6283;51.330;12.374;2022-08-18T04:59:07;5.30;;;4.80;;
12437;SDS011;6283;51.330;12.374;2022-08-18T05:01:36;6.45;;;5.22;;
12437;SDS011;6283;51.330;12.374;2022-08-18T05:04:03;10.63;;;5.20;;
12437;SDS011;6283;51.330;12.374;2022-08-18T05:06:31;5.72;;;4.95;;
12437;SDS011;6283;51.330;12.374;2022-08-18T05:08:58;8.50;;;5.40;;
12437;SDS011;6283;51.330;12.374;2022-08-18T05:11:27;6.00;;;4.85;;
12437;SDS011;6283;51.330;12.374;2022-08-18T05:13:57;9.32;;;5.28;;
12437;SDS011;6283;51.330;12.374;2022-08-18T05:16:24;8.32;;;5.32;;
12437;SDS011;6283;51.330;12.374;2022-08-18T05:18:52;5.60;;;5.00;;
12437;SDS011;6283;51.330;12.374;2022-08-18T05:21:19;7.15;;;4.88;;
12437;SDS011;6283;51.330;12.374;2022-08-18T05:23:46;7.57;;;4.93;;
12437;SDS011;6283;51.330;12.374;2022-08-18T05:26:13;6.97;;;5.35;;
12437;SDS011;6283;51.330;12.374;2022-08-18T05:28:42;6.85;;;5.22;;
12437;SDS011;6283;51.330;12.374;2022-08-18T05:31:10;7.70;;;5.25;;
12437;SDS011;6283;51.330;12.374;2022-08-18T05:33:38;5.18;;;4.68;;
12437;SDS011;6283;51.330;12.374;2022-08-18T05:36:05;6.43;;;5.10;;
12437;SDS011;6283;51.330;12.374;2022-08-18T05:41:36;5.72;;;5.03;;
12437;SDS011;6283;51.330;12.374;2022-08-18T05:44:05;5.93;;;5.03;;
12437;SDS011;6283;51.330;12.374;2022-08-18T05:46:37;6.57;;;5.30;;
12437;SDS011;6283;51.330;12.374;2022-08-18T05:49:03;6.07;;;4.88;;
12437;SDS011;6283;51.330;12.374;2022-08-18T05:51:42;8.38;;;5.28;;
12437;SDS011;6283;51.330;12.374;2022-08-18T05:54:12;5.80;;;5.00;;
12437;SDS011;6283;51.330;12.374;2022-08-18T05:57:00;6.68;;;5.18;;
12437;SDS011;6283;51.330;12.374;2022-08-18T05:59:33;6.20;;;5.32;;
12437;SDS011;6283;51.330;12.374;2022-08-18T06:07:18;8.50;;;5.53;;
12437;SDS011;6283;51.330;12.374;2022-08-18T06:10:04;8.15;;;5.95;;
12437;SDS011;6283;51.330;12.374;2022-08-18T06:12:33;10.90;;;5.88;;
12437;SDS011;6283;51.330;12.374;2022-08-18T06:20:42;10.18;;;6.65;;
12437;SDS011;6283;51.330;12.374;2022-08-18T06:25:56;6.75;;;5.88;;
12437;SDS011;6283;51.330;12.374;2022-08-18T06:28:50;9.57;;;6.43;;
12437;SDS011;6283;51.330;12.374;2022-08-18T06:34:05;8.00;;;6.28;;
12437;SDS011;6283;51.330;12.374;2022-08-18T06:42:06;6.75;;;6.22;;
12437;SDS011;6283;51.330;12.374;2022-08-18T06:44:35;10.90;;;7.13;;
12437;SDS011;6283;51.330;12.374;2022-08-18T06:50:03;10.18;;;7.80;;
12437;SDS011;6283;51.330;12.374;2022-08-18T06:52:39;13.45;;;7.85;;
12437;SDS011;6283;51.330;12.374;2022-08-18T06:55:16;8.80;;;7.65;;
12437;SDS011;6283;51.330;12.374;2022-08-18T06:57:58;10.80;;;7.85;;
12437;SDS011;6283;51.330;12.374;2022-08-18T07:00:28;9.95;;;7.47;;
12437;SDS011;6283;51.330;12.374;2022-08-18T07:11:18;10.27;;;9.10;;
12437;SDS011;6283;51.330;12.374;2022-08-18T07:13:50;10.15;;;8.00;;
12437;SDS011;6283;51.330;12.374;2022-08-18T07:16:35;9.55;;;8.20;;
12437;SDS011;6283;51.330;12.374;2022-08-18T07:19:07;8.75;;;7.93;;
12437;SDS011;6283;51.330;12.374;2022-08-18T07:21:46;10.45;;;8.20;;
12437;SDS011;6283;51.330;12.374;2022-08-18T07:24:31;10.60;;;9.60;;
12437;SDS011;6283;51.330;12.374;2022-08-18T07:29:37;10.95;;;9.75;;
12437;SDS011;6283;51.330;12.374;2022-08-18T07:32:21;14.48;;;10.80;;
12437;SDS011;6283;51.330;12.374;2022-08-18T07:34:52;10.23;;;9.23;;
12437;SDS011;6283;51.330;12.374;2022-08-18T07:37:23;11.85;;;9.93;;
12437;SDS011;6283;51.330;12.374;2022-08-18T07:40:06;11.10;;;9.88;;
12437;SDS011;6283;51.330;12.374;2022-08-18T07:42:57;11.00;;;9.80;;
12437;SDS011;6283;51.330;12.374;2022-08-18T07:45:36;11.05;;;9.90;;
12437;SDS011;6283;51.330;12.374;2022-08-18T07:48:15;12.52;;;9.93;;
12437;SDS011;6283;51.330;12.374;2022-08-18T07:56:10;13.55;;;10.68;;
12437;SDS011;6283;51.330;12.374;2022-08-18T08:01:48;14.70;;;12.27;;
12437;SDS011;6283;51.330;12.374;2022-08-18T08:05:11;17.27;;;13.93;;
12437;SDS011;6283;51.330;12.374;2022-08-18T08:07:39;14.20;;;12.50;;
12437;SDS011;6283;51.330;12.374;2022-08-18T08:15:31;16.67;;;14.00;;
12437;SDS011;6283;51.330;12.374;2022-08-18T08:26:01;16.00;;;12.57;;
12437;SDS011;6283;51.330;12.374;2022-08-18T08:31:21;19.20;;;13.07;;
12437;SDS011;6283;51.330;12.374;2022-08-18T08:37:00;15.30;;;12.45;;
12437;SDS011;6283;51.330;12.374;2022-08-18T08:42:15;14.10;;;12.63;;
12437;SDS011;6283;51.330;12.374;2022-08-18T08:44:54;14.82;;;11.75;;
12437;SDS011;6283;51.330;12.374;2022-08-18T08:50:09;15.05;;;13.45;;
12437;SDS011;6283;51.330;12.374;2022-08-18T08:52:41;17.25;;;12.07;;
12437;SDS011;6283;51.330;12.374;2022-08-18T08:55:36;14.50;;;12.45;;
12437;SDS011;6283;51.330;12.374;2022-08-18T09:00:50;14.15;;;12.82;;
12437;SDS011;6283;51.330;12.374;2022-08-18T09:22:47;15.35;;;12.43;;
12437;SDS011;6283;51.330;12.374;2022-08-18T09:33:23;17.13;;;15.32;;
12437;SDS011;6283;51.330;12.374;2022-08-18T09:38:51;15.13;;;13.00;;
12437;SDS011;6283;51.330;12.374;2022-08-18T09:42:01;21.55;;;12.68;;
12437;SDS011;6283;51.330;12.374;2022-08-18T09:47:55;16.17;;;14.40;;
12437;SDS011;6283;51.330;12.374;2022-08-18T09:57:24;12.60;;;11.30;;
12437;SDS011;6283;51.330;12.374;2022-08-18T10:10:52;14.27;;;12.77;;
12437;SDS011;6283;51.330;12.374;2022-08-18T10:16:19;16.80;;;13.38;;
12437;SDS011;6283;51.330;12.374;2022-08-18T10:24:20;13.77;;;12.23;;
12437;SDS011;6283;51.330;12.374;2022-08-18T10:34:41;17.42;;;13.45;;
12437;SDS011;6283;51.330;12.374;2022-08-18T10:40:00;13.73;;;12.43;;
12437;SDS011;6283;51.330;12.374;2022-08-18T10:42:51;14.48;;;12.98;;
12437;SDS011;6283;51.330;12.374;2022-08-18T10:45:25;16.13;;;12.45;;
12437;SDS011;6283;51.330;12.374;2022-08-18T10:48:11;14.02;;;12.43;;
12437;SDS011;6283;51.330;12.374;2022-08-18T10:50:50;16.30;;;12.25;;
12437;SDS011;6283;51.330;12.374;2022-08-18T10:53:33;14.88;;;13.27;;
12437;SDS011;6283;51.330;12.374;2022-08-18T11:04:46;16.65;;;11.15;;
12437;SDS011;6283;51.330;12.374;2022-08-18T11:07:22;14.20;;;12.90;;
12437;SDS011;6283;51.330;12.374;2022-08-18T11:09:51;15.10;;;13.13;;
12437;SDS011;6283;51.330;12.374;2022-08-18T11:18:37;13.45;;;11.38;;
12437;SDS011;6283;51.330;12.374;2022-08-18T11:26:31;12.60;;;11.40;;
12437;SDS011;6283;51.330;12.374;2022-08-18T11:29:00;14.77;;;10.73;;
12437;SDS011;6283;51.330;12.374;2022-08-18T11:31:40;13.23;;;10.38;;
12437;SDS011;6283;51.330;12.374;2022-08-18T11:34:05;11.30;;;10.13;;
12437;SDS011;6283;51.330;12.374;2022-08-18T11:36:40;11.57;;;9.48;;
12437;SDS011;6283;51.330;12.374;2022-08-18T11:39:09;11.25;;;10.05;;
12437;SDS011;6283;51.330;12.374;2022-08-18T11:41:36;11.60;;;10.18;;
12437;SDS011;6283;51.330;12.374;2022-08-18T11:44:03;12.80;;;9.68;;
12437;SDS011;6283;51.330;12.374;2022-08-18T11:46:37;10.88;;;9.70;;
12437;SDS011;6283;51.330;12.374;2022-08-18T11:49:17;10.15;;;9.02;;
12437;SDS011;6283;51.330;12.374;2022-08-18T11:51:57;9.90;;;9.00;;
12437;SDS011;6283;51.330;12.374;2022-08-18T11:54:32;10.07;;;8.73;;
12437;SDS011;6283;51.330;12.374;2022-08-18T12:05:48;9.45;;;8.23;;
12437;SDS011;6283;51.330;12.374;2022-08-18T12:08:32;9.35;;;8.45;;
12437;SDS011;6283;51.330;12.374;2022-08-18T12:11:01;10.13;;;8.18;;
12437;SDS011;6283;51.330;12.374;2022-08-18T12:13:29;9.25;;;8.35;;
12437;SDS011;6283;51.330;12.374;2022-08-18T12:16:15;9.85;;;8.95;;
12437;SDS011;6283;51.330;12.374;2022-08-18T12:18:54;10.25;;;9.18;;
12437;SDS011;6283;51.330;12.374;2022-08-18T12:21:20;10.15;;;8.80;;
12437;SDS011;6283;51.330;12.374;2022-08-18T12:23:45;10.13;;;8.10;;
12437;SDS011;6283;51.330;12.374;2022-08-18T12:26:12;10.88;;;9.63;;
12437;SDS011;6283;51.330;12.374;2022-08-18T12:28:39;9.32;;;8.43;;
12437;SDS011;6283;51.330;12.374;2022-08-18T12:31:05;11.85;;;8.93;;
12437;SDS011;6283;51.330;12.374;2022-08-18T12:33:32;10.98;;;9.95;;
12437;SDS011;6283;51.330;12.374;2022-08-18T12:35:58;11.07;;;9.98;;
12437;SDS011;6283;51.330;12.374;2022-08-18T12:38:24;11.27;;;9.45;;
12437;SDS011;6283;51.330;12.374;2022-08-18T12:40:53;10.85;;;9.75;;
12437;SDS011;6283;51.330;12.374;2022-08-18T12:43:19;10.88;;;9.70;;
12437;SDS011;6283;51.330;12.374;2022-08-18T12:45:45;13.70;;;10.75;;
12437;SDS011;6283;51.330;12.374;2022-08-18T12:48:11;11.75;;;10.48;;
12437;SDS011;6283;51.330;12.374;2022-08-18T12:50:37;12.57;;;11.48;;
12437;SDS011;6283;51.330;12.374;2022-08-18T12:53:03;12.85;;;11.50;;
12437;SDS011;6283;51.330;12.374;2022-08-18T12:55:30;13.15;;;11.73;;
12437;SDS011;6283;51.330;12.374;2022-08-18T12:57:59;14.57;;;11.77;;
12437;SDS011;6283;51.330;12.374;2022-08-18T13:00:25;13.63;;;12.25;;
12437;SDS011;6283;51.330;12.374;2022-08-18T13:02:51;12.80;;;11.55;;
12437;SDS011;6283;51.330;12.374;2022-08-18T13:05:17;13.63;;;12.20;;
12437;SDS011;6283;51.330;12.374;2022-08-18T13:07:43;13.27;;;11.85;;
12437;SDS011;6283;51.330;12.374;2022-08-18T13:10:09;14.10;;;12.63;;
12437;SDS011;6283;51.330;12.374;2022-08-18T13:12:34;14.07;;;12.00;;
12437;SDS011;6283;51.330;12.374;2022-08-18T13:15:01;14.57;;;12.55;;
12437;SDS011;6283;51.330;12.374;2022-08-18T13:17:27;14.93;;;13.30;;
12437;SDS011;6283;51.330;12.374;2022-08-18T13:19:53;14.25;;;12.82;;
12437;SDS011;6283;51.330;12.374;2022-08-18T13:22:18;15.32;;;13.73;;
12437;SDS011;6283;51.330;12.374;2022-08-18T13:24:44;14.45;;;12.88;;
12437;SDS011;6283;51.330;12.374;2022-08-18T13:27:09;14.00;;;12.57;;
12437;SDS011;6283;51.330;12.374;2022-08-18T13:29:36;16.95;;;13.27;;
12437;SDS011;6283;51.330;12.374;2022-08-18T13:32:02;13.88;;;12.48;;
12437;SDS011;6283;51.330;12.374;2022-08-18T13:34:32;14.70;;;13.02;;
12437;SDS011;6283;51.330;12.374;2022-08-18T13:36:58;15.00;;;13.40;;
12437;SDS011;6283;51.330;12.374;2022-08-18T13:39:24;14.30;;;12.68;;
12437;SDS011;6283;51.330;12.374;2022-08-18T13:41:52;14.07;;;12.60;;
12437;SDS011;6283;51.330;12.374;2022-08-18T13:44:21;14.10;;;12.43;;
12437;SDS011;6283;51.330;12.374;2022-08-18T13:46:48;15.65;;;11.95;;
12437;SDS011;6283;51.330;12.374;2022-08-18T13:49:20;14.43;;;11.60;;
12437;SDS011;6283;51.330;12.374;2022-08-18T13:51:51;14.57;;;12.43;;
12437;SDS011;6283;51.330;12.374;2022-08-18T13:54:30;13.98;;;12.35;;
12437;SDS011;6283;51.330;12.374;2022-08-18T13:56:57;16.30;;;13.35;;
12437;SDS011;6283;51.330;12.374;2022-08-18T13:59:24;14.23;;;12.13;;
12437;SDS011;6283;51.330;12.374;2022-08-18T14:01:57;14.73;;;13.15;;
12437;SDS011;6283;51.330;12.374;2022-08-18T14:04:25;14.25;;;11.80;;
12437;SDS011;6283;51.330;12.374;2022-08-18T14:06:51;14.05;;;12.60;;
12437;SDS011;6283;51.330;12.374;2022-08-18T14:09:18;13.35;;;12.13;;
12437;SDS011;6283;51.330;12.374;2022-08-18T14:11:43;15.00;;;12.93;;
12437;SDS011;6283;51.330;12.374;2022-08-18T14:14:11;14.95;;;12.95;;
12437;SDS011;6283;51.330;12.374;2022-08-18T14:16:37;13.60;;;12.25;;
12437;SDS011;6283;51.330;12.374;2022-08-18T14:19:02;15.07;;;11.88;;
12437;SDS011;6283;51.330;12.374;2022-08-18T14:21:50;13.80;;;12.18;;
12437;SDS011;6283;51.330;12.374;2022-08-18T14:24:36;16.55;;;12.05;;
12437;SDS011;6283;51.330;12.374;2022-08-18T14:27:32;12.98;;;11.65;;
12437;SDS011;6283;51.330;12.374;2022-08-18T14:29:59;14.77;;;13.20;;
12437;SDS011;6283;51.330;12.374;2022-08-18T14:32:26;13.52;;;11.40;;
12437;SDS011;6283;51.330;12.374;2022-08-18T14:34:56;14.35;;;12.13;;
12437;SDS011;6283;51.330;12.374;2022-08-18T14:37:24;14.80;;;12.77;;
12437;SDS011;6283;51.330;12.374;2022-08-18T14:39:50;14.43;;;12.95;;
12437;SDS011;6283;51.330;12.374;2022-08-18T14:42:16;15.35;;;13.82;;
12437;SDS011;6283;51.330;12.374;2022-08-18T14:44:45;15.77;;;14.05;;
12437;SDS011;6283;51.330;12.374;2022-08-18T14:47:11;13.88;;;12.48;;
12437;SDS011;6283;51.330;12.374;2022-08-18T14:49:37;15.18;;;13.13;;
12437;SDS011;6283;51.330;12.374;2022-08-18T14:52:04;16.48;;;13.82;;
12437;SDS011;6283;51.330;12.374;2022-08-18T14:54:33;14.70;;;13.25;;
12437;SDS011;6283;51.330;12.374;2022-08-18T14:56:59;16.02;;;14.32;;
12437;SDS011;6283;51.330;12.374;2022-08-18T14:59:27;16.38;;;14.77;;
12437;SDS011;6283;51.330;12.374;2022-08-18T15:01:55;17.73;;;15.07;;
12437;SDS011;6283;51.330;12.374;2022-08-18T15:04:23;17.25;;;15.50;;
12437;SDS011;6283;51.330;12.374;2022-08-18T15:06:51;18.17;;;15.70;;
12437;SDS011;6283;51.330;12.374;2022-08-18T15:09:17;17.50;;;14.70;;
12437;SDS011;6283;51.330;12.374;2022-08-18T15:11:43;15.45;;;13.95;;
12437;SDS011;6283;51.330;12.374;2022-08-18T15:14:08;16.48;;;14.88;;
12437;SDS011;6283;51.330;12.374;2022-08-18T15:16:34;17.60;;;15.63;;
12437;SDS011;6283;51.330;12.374;2022-08-18T15:19:00;18.85;;;15.52;;
12437;SDS011;6283;51.330;12.374;2022-08-18T15:21:26;15.65;;;13.48;;
12437;SDS011;6283;51.330;12.374;2022-08-18T15:24:11;17.25;;;15.43;;
12437;SDS011;6283;51.330;12.374;2022-08-18T15:26:56;15.90;;;14.25;;
12437;SDS011;6283;51.330;12.374;2022-08-18T15:29:22;14.95;;;13.35;;
12437;SDS011;6283;51.330;12.374;2022-08-18T15:31:49;16.27;;;14.20;;
12437;SDS011;6283;51.330;12.374;2022-08-18T15:34:15;15.60;;;13.90;;
12437;SDS011;6283;51.330;12.374;2022-08-18T15:36:42;15.93;;;13.25;;
12437;SDS011;6283;51.330;12.374;2022-08-18T15:39:08;14.68;;;13.18;;
12437;SDS011;6283;51.330;12.374;2022-08-18T15:41:38;14.43;;;12.93;;
12437;SDS011;6283;51.330;12.374;2022-08-18T15:44:05;15.77;;;14.25;;
12437;SDS011;6283;51.330;12.374;2022-08-18T15:46:33;13.82;;;12.52;;
12437;SDS011;6283;51.330;12.374;2022-08-18T15:49:00;14.38;;;12.95;;
12437;SDS011;6283;51.330;12.374;2022-08-18T15:51:30;16.45;;;14.35;;
12437;SDS011;6283;51.330;12.374;2022-08-18T15:53:56;14.43;;;12.88;;
12437;SDS011;6283;51.330;12.374;2022-08-18T15:56:22;17.23;;;13.45;;
12437;SDS011;6283;51.330;12.374;2022-08-18T15:58:50;14.75;;;13.27;;
12437;SDS011;6283;51.330;12.374;2022-08-18T16:01:16;14.27;;;12.88;;
12437;SDS011;6283;51.330;12.374;2022-08-18T16:03:44;14.48;;;13.13;;
12437;SDS011;6283;51.330;12.374;2022-08-18T16:06:15;14.40;;;13.00;;
12437;SDS011;6283;51.330;12.374;2022-08-18T16:08:46;19.30;;;17.50;;
12437;SDS011;6283;51.330;12.374;2022-08-18T16:11:13;14.70;;;13.20;;
12437;SDS011;6283;51.330;12.374;2022-08-18T16:13:39;14.25;;;12.85;;
12437;SDS011;6283;51.330;12.374;2022-08-18T16:16:13;14.57;;;12.73;;
12437;SDS011;6283;51.330;12.374;2022-08-18T16:18:42;13.85;;;12.52;;
12437;SDS011;6283;51.330;12.374;2022-08-18T16:21:10;17.73;;;15.13;;
12437;SDS011;6283;51.330;12.374;2022-08-18T16:23:38;15.52;;;13.70;;
12437;SDS011;6283;51.330;12.374;2022-08-18T16:26:06;15.30;;;13.90;;
12437;SDS011;6283;51.330;12.374;2022-08-18T16:28:33;14.43;;;12.93;;
12437;SDS011;6283;51.330;12.374;2022-08-18T16:30:59;15.05;;;13.50;;
12437;SDS011;6283;51.330;12.374;2022-08-18T16:33:26;16.83;;;15.07;;
12437;SDS011;6283;51.330;12.374;2022-08-18T16:35:52;14.50;;;13.10;;
12437;SDS011;6283;51.330;12.374;2022-08-18T16:38:18;16.85;;;15.25;;
12437;SDS011;6283;51.330;12.374;2022-08-18T16:40:44;16.27;;;14.68;;
12437;SDS011;6283;51.330;12.374;2022-08-18T16:43:11;16.55;;;14.85;;
12437;SDS011;6283;51.330;12.374;2022-08-18T16:45:38;18.02;;;16.00;;
12437;SDS011;6283;51.330;12.374;2022-08-18T16:48:07;18.30;;;16.58;;
12437;SDS011;6283;51.330;12.374;2022-08-18T16:50:34;18.65;;;16.75;;
12437;SDS011;6283;51.330;12.374;2022-08-18T16:53:02;20.20;;;16.70;;
12437;SDS011;6283;51.330;12.374;2022-08-18T16:55:29;18.75;;;16.77;;
12437;SDS011;6283;51.330;12.374;2022-08-18T16:57:55;19.23;;;17.35;;
12437;SDS011;6283;51.330;12.374;2022-08-18T17:00:54;19.90;;;17.90;;
12437;SDS011;6283;51.330;12.374;2022-08-18T17:03:39;20.27;;;18.20;;
12437;SDS011;6283;51.330;12.374;2022-08-18T17:06:23;21.60;;;18.05;;
12437;SDS011;6283;51.330;12.374;2022-08-18T17:08:52;18.13;;;15.90;;
12437;SDS011;6283;51.330;12.374;2022-08-18T17:11:21;18.40;;;16.60;;
12437;SDS011;6283;51.330;12.374;2022-08-18T17:13:49;19.00;;;17.08;;
12437;SDS011;6283;51.330;12.374;2022-08-18T17:16:17;18.48;;;16.60;;
12437;SDS011;6283;51.330;12.374;2022-08-18T17:18:43;17.42;;;15.77;;
12437;SDS011;6283;51.330;12.374;2022-08-18T17:21:11;18.60;;;16.60;;
12437;SDS011;6283;51.330;12.374;2022-08-18T17:23:40;18.70;;;16.70;;
12437;SDS011;6283;51.330;12.374;2022-08-18T17:29:27;20.13;;;17.42;;
12437;SDS011;6283;51.330;12.374;2022-08-18T17:32:05;18.50;;;16.60;;
12437;SDS011;6283;51.330;12.374;2022-08-18T17:34:38;19.20;;;17.40;;
12437;SDS011;6283;51.330;12.374;2022-08-18T17:37:08;19.25;;;15.98;;
12437;SDS011;6283;51.330;12.374;2022-08-18T17:39:39;18.15;;;16.25;;
12437;SDS011;6283;51.330;12.374;2022-08-18T17:42:10;18.33;;;15.10;;
12437;SDS011;6283;51.330;12.374;2022-08-18T17:44:51;16.25;;;14.65;;
12437;SDS011;6283;51.330;12.374;2022-08-18T17:47:30;17.10;;;15.30;;
12437;SDS011;6283;51.330;12.374;2022-08-18T17:50:03;16.27;;;14.45;;
12437;SDS011;6283;51.330;12.374;2022-08-18T17:52:51;16.02;;;14.52;;